Flight Briefing for CPX304

Departure Arrival
Tokyo-Narita International Airport (RJAA)
Click to view FAA NOTAMS
Guam International Airport (PGUM)
Click to view FAA NOTAMS
Departure Time Arrival Time
N/A N/A
Aircraft Distance
B767-300BDSF 1360nm
Departure METAR Arrival METAR
RJAA 260030Z 32005KT 7000 -RA FEW015 SCT030 BKN050 09/08 Q1012 NOSIG RMK 1CU015 3SC030 7SC050 A2991 PGUM 252354Z 09017G22KT 10SM FEW016 FEW034 SCT065 29/23 A3002 RMK AO2 SLP156 60003 T02890233 10294 20250 50003
Suggested Route
CUPID Y820 SUNNS Y820 ADKAK G223 DAGDA A337 NOGAK A337 TEGOD G205 GUYES


View recent IFR Routes data
Notes



Charts and Procedures

Charts for RJAA
No chart available
Charts for PGUM
No chart available

Windy.com Weather Map